createdAt,value
2022-11-29T00:01:36.176Z,9.00
2022-11-29T00:04:06.194Z,10.27
2022-11-29T00:06:34.646Z,10.15
2022-11-29T00:09:06.413Z,10.65
2022-11-29T00:11:54.909Z,10.38
2022-11-29T00:14:22.357Z,9.90
2022-11-29T00:16:57.137Z,9.68
2022-11-29T00:19:23.946Z,7.15
2022-11-29T00:21:51.136Z,9.65
2022-11-29T00:24:17.966Z,9.70
2022-11-29T00:26:44.663Z,9.07
2022-11-29T00:29:12.908Z,10.05
2022-11-29T00:31:42.318Z,10.63
2022-11-29T00:34:10.832Z,9.05
2022-11-29T00:36:40.304Z,10.50
2022-11-29T00:39:07.063Z,10.43
2022-11-29T00:41:34.114Z,11.43
2022-11-29T00:44:01.126Z,10.32
2022-11-29T00:46:28.669Z,10.20
2022-11-29T00:48:55.360Z,10.23
2022-11-29T00:51:22.037Z,9.32
2022-11-29T00:53:51.265Z,9.02
2022-11-29T00:56:17.943Z,9.48
2022-11-29T00:58:44.721Z,9.82
2022-11-29T01:01:11.936Z,10.27
2022-11-29T01:03:38.880Z,8.63
2022-11-29T01:06:13.977Z,7.97
2022-11-29T01:08:40.939Z,9.43
2022-11-29T01:11:11.623Z,8.82
2022-11-29T01:13:39.011Z,9.18
2022-11-29T01:16:06.682Z,10.43
2022-11-29T01:18:34.086Z,8.20
2022-11-29T01:21:04.421Z,9.20
2022-11-29T01:23:31.276Z,9.55
2022-11-29T01:26:07.496Z,8.55
2022-11-29T01:28:37.740Z,8.35
2022-11-29T01:31:13.386Z,8.30
2022-11-29T01:33:40.409Z,7.28
2022-11-29T01:36:08.282Z,9.13
2022-11-29T01:38:35.979Z,9.57
2022-11-29T01:41:04.492Z,9.68
2022-11-29T01:43:32.148Z,9.30
2022-11-29T01:45:59.118Z,10.73
2022-11-29T01:48:31.991Z,9.60
2022-11-29T01:51:00.709Z,9.18
2022-11-29T01:53:30.496Z,9.80
2022-11-29T01:56:02.675Z,9.68
2022-11-29T01:58:29.840Z,9.27
2022-11-29T02:00:58.263Z,10.65
2022-11-29T02:03:25.228Z,10.05
2022-11-29T02:05:58.204Z,10.15
2022-11-29T02:08:35.874Z,9.75
2022-11-29T02:11:13.748Z,9.57
2022-11-29T02:13:56.310Z,10.15
2022-11-29T02:16:58.403Z,9.13
2022-11-29T02:19:42.932Z,6.63
2022-11-29T02:22:24.469Z,9.32
2022-11-29T02:25:10.041Z,9.27
2022-11-29T02:28:09.782Z,8.27
2022-11-29T02:30:58.410Z,9.00
2022-11-29T02:33:40.786Z,9.60
2022-11-29T02:36:33.988Z,10.00
2022-11-29T02:39:05.597Z,7.22
2022-11-29T02:41:54.303Z,10.82
2022-11-29T02:44:44.436Z,10.63
2022-11-29T02:47:36.359Z,10.20
2022-11-29T02:50:17.568Z,10.95
2022-11-29T02:53:06.330Z,11.23
2022-11-29T02:56:08.432Z,10.95
2022-11-29T02:58:48.064Z,9.70
2022-11-29T03:01:28.402Z,8.43
2022-11-29T03:04:14.441Z,9.75
2022-11-29T03:06:58.852Z,8.80
2022-11-29T03:10:03.753Z,8.57
2022-11-29T03:12:46.389Z,9.32
2022-11-29T03:15:48.514Z,9.48
2022-11-29T03:18:50.787Z,9.40
2022-11-29T03:21:23.762Z,9.73
2022-11-29T03:23:54.952Z,9.05
2022-11-29T03:26:32.035Z,9.40
2022-11-29T03:29:18.979Z,9.77
2022-11-29T03:32:09.071Z,9.20
2022-11-29T03:34:57.152Z,8.52
2022-11-29T03:37:53.176Z,8.85
2022-11-29T03:40:24.419Z,7.35
2022-11-29T03:43:00.622Z,10.60
2022-11-29T03:45:36.408Z,9.85
2022-11-29T03:48:23.212Z,9.32
2022-11-29T03:50:59.315Z,10.15
2022-11-29T03:53:33.804Z,11.40
2022-11-29T03:56:03.675Z,8.95
2022-11-29T03:58:42.536Z,9.75
2022-11-29T04:01:21.168Z,10.65
2022-11-29T04:04:17.134Z,8.35
2022-11-29T04:07:21.479Z,10.13
2022-11-29T04:09:59.618Z,10.07
2022-11-29T04:12:32.466Z,11.38
2022-11-29T04:15:20.200Z,11.93
2022-11-29T04:18:18.724Z,12.57
2022-11-29T04:21:12.581Z,12.13
2022-11-29T04:23:55.779Z,9.77
2022-11-29T04:26:35.196Z,10.95
2022-11-29T04:29:26.271Z,13.18
2022-11-29T04:32:08.225Z,12.63
2022-11-29T04:35:09.260Z,11.32
2022-11-29T04:37:54.287Z,9.23
2022-11-29T04:40:48.337Z,12.02
2022-11-29T04:43:36.618Z,12.02
2022-11-29T04:46:32.218Z,12.23
2022-11-29T04:49:17.777Z,11.27
2022-11-29T04:51:53.362Z,11.95
2022-11-29T04:54:43.666Z,11.23
2022-11-29T04:57:32.760Z,10.32
2022-11-29T05:00:15.647Z,10.77
2022-11-29T05:02:58.964Z,12.23
2022-11-29T05:05:52.671Z,10.38
2022-11-29T05:08:37.060Z,11.57
2022-11-29T05:11:28.427Z,9.68
2022-11-29T05:14:16.572Z,13.95
2022-11-29T05:16:43.255Z,14.43
2022-11-29T05:19:12.640Z,14.50
2022-11-29T05:21:58.019Z,14.43
2022-11-29T05:24:51.337Z,14.18
2022-11-29T05:27:34.596Z,12.57
2022-11-29T05:30:20.850Z,13.30
2022-11-29T05:33:11.846Z,15.60
2022-11-29T05:36:01.695Z,14.20
2022-11-29T05:38:59.221Z,15.23
2022-11-29T05:41:43.513Z,15.77
2022-11-29T05:44:30.131Z,19.92
2022-11-29T05:47:03.221Z,14.02
2022-11-29T05:49:41.868Z,13.70
2022-11-29T05:52:35.028Z,15.70
2022-11-29T05:55:07.656Z,12.43
2022-11-29T05:57:39.713Z,15.90
2022-11-29T06:02:56.101Z,13.23
2022-11-29T06:05:52.942Z,11.52
2022-11-29T06:08:44.144Z,16.48
2022-11-29T06:11:15.877Z,14.38
2022-11-29T06:13:55.072Z,14.23
2022-11-29T06:17:08.251Z,15.82
2022-11-29T06:19:53.383Z,15.65
2022-11-29T06:22:28.152Z,16.38
2022-11-29T06:25:18.513Z,17.33
2022-11-29T06:28:14.109Z,18.42
2022-11-29T06:31:16.708Z,15.75
2022-11-29T06:33:53.837Z,18.30
2022-11-29T06:36:35.835Z,17.35
2022-11-29T06:39:05.418Z,16.77
2022-11-29T06:41:34.830Z,24.20
2022-11-29T06:44:01.745Z,27.55
2022-11-29T06:46:48.793Z,29.52
2022-11-29T06:49:27.390Z,23.15
2022-11-29T06:51:56.788Z,21.23
2022-11-29T06:54:40.647Z,16.85
2022-11-29T06:57:34.215Z,16.55
2022-11-29T07:00:03.635Z,15.80
2022-11-29T07:02:54.648Z,14.05
2022-11-29T07:05:34.614Z,13.68
2022-11-29T07:08:05.123Z,13.00
2022-11-29T07:10:36.105Z,12.23
2022-11-29T07:13:05.640Z,14.02
2022-11-29T07:15:32.780Z,13.98
2022-11-29T07:18:25.156Z,15.90
2022-11-29T07:23:48.522Z,14.80
2022-11-29T07:26:28.985Z,15.30
2022-11-29T07:29:16.608Z,13.77
2022-11-29T07:31:52.315Z,13.48
2022-11-29T07:34:38.943Z,16.73
2022-11-29T07:37:27.189Z,15.07
2022-11-29T07:40:13.111Z,12.95
2022-11-29T07:42:52.300Z,14.48
2022-11-29T07:45:34.411Z,17.08
2022-11-29T07:48:01.804Z,17.52
2022-11-29T07:50:31.933Z,13.50
2022-11-29T07:53:00.108Z,13.43
2022-11-29T07:55:27.735Z,16.50
2022-11-29T07:57:57.103Z,15.57
2022-11-29T08:00:26.380Z,16.15
2022-11-29T08:02:56.542Z,17.58
2022-11-29T08:05:24.109Z,16.65
2022-11-29T08:08:03.949Z,17.20
2022-11-29T08:10:31.059Z,17.13
2022-11-29T08:13:05.851Z,15.80
2022-11-29T08:15:32.827Z,14.65
2022-11-29T08:18:00.001Z,15.85
2022-11-29T08:20:33.601Z,12.23
2022-11-29T08:23:00.713Z,17.88
2022-11-29T08:25:28.281Z,17.88
2022-11-29T08:27:56.309Z,17.95
2022-11-29T08:30:28.177Z,16.00
2022-11-29T08:32:55.248Z,15.63
2022-11-29T08:35:28.496Z,14.60
2022-11-29T08:37:58.052Z,16.85
2022-11-29T08:40:25.383Z,15.07
2022-11-29T08:42:55.468Z,17.40
2022-11-29T08:45:22.498Z,16.08
2022-11-29T08:47:49.561Z,17.15
2022-11-29T08:50:19.386Z,13.70
2022-11-29T08:53:10.710Z,14.68
2022-11-29T08:55:43.279Z,13.52
2022-11-29T08:58:13.252Z,12.05
2022-11-29T09:00:42.925Z,8.85
2022-11-29T09:03:28.505Z,8.55
2022-11-29T09:05:55.567Z,8.20
2022-11-29T09:08:24.638Z,7.38
2022-11-29T09:10:51.791Z,7.80
2022-11-29T09:13:18.892Z,7.55
2022-11-29T09:15:53.086Z,6.80
2022-11-29T09:18:22.501Z,7.68
2022-11-29T09:20:52.546Z,6.53
2022-11-29T09:23:22.188Z,7.78
2022-11-29T09:25:51.725Z,6.70
2022-11-29T09:28:18.733Z,6.85
2022-11-29T09:30:49.737Z,7.40
2022-11-29T09:33:19.389Z,7.55
2022-11-29T09:35:49.447Z,9.43
2022-11-29T09:38:24.470Z,9.80
2022-11-29T09:40:55.088Z,10.35
2022-11-29T09:43:34.133Z,7.85
2022-11-29T09:46:22.207Z,7.03
2022-11-29T09:48:59.213Z,7.15
2022-11-29T09:51:51.219Z,7.70
2022-11-29T09:54:22.561Z,6.53
2022-11-29T09:56:52.688Z,6.80
2022-11-29T09:59:34.291Z,7.40
2022-11-29T10:02:29.404Z,7.15
2022-11-29T10:05:13.413Z,8.07
2022-11-29T10:07:50.312Z,6.57
2022-11-29T10:10:31.394Z,8.35
2022-11-29T10:13:11.577Z,9.32
2022-11-29T10:15:43.489Z,8.77
2022-11-29T10:18:32.468Z,8.07
2022-11-29T10:21:12.888Z,7.85
2022-11-29T10:23:46.524Z,7.90
2022-11-29T10:26:15.962Z,8.98
2022-11-29T10:28:51.161Z,8.20
2022-11-29T10:31:32.590Z,8.45
2022-11-29T10:34:05.381Z,8.40
2022-11-29T10:36:46.847Z,9.25
2022-11-29T10:39:38.611Z,6.63
2022-11-29T10:42:29.710Z,8.52
2022-11-29T10:44:58.216Z,9.20
2022-11-29T10:47:25.618Z,8.82
2022-11-29T10:49:55.071Z,9.18
2022-11-29T10:52:23.376Z,9.25
2022-11-29T10:54:58.442Z,9.88
2022-11-29T10:57:32.759Z,9.57
2022-11-29T11:00:10.032Z,9.85
2022-11-29T11:02:37.905Z,9.13
2022-11-29T11:05:19.028Z,8.95
2022-11-29T11:07:57.421Z,9.07
2022-11-29T11:10:31.933Z,9.18
2022-11-29T11:13:19.104Z,8.75
2022-11-29T11:15:48.497Z,9.10
2022-11-29T11:18:25.624Z,9.10
2022-11-29T11:21:00.677Z,8.85
2022-11-29T11:23:43.058Z,7.80
2022-11-29T11:26:13.091Z,8.65
2022-11-29T11:28:58.077Z,8.35
2022-11-29T11:31:39.703Z,7.95
2022-11-29T11:34:27.579Z,8.50
2022-11-29T11:37:16.518Z,8.43
2022-11-29T11:39:45.833Z,7.82
2022-11-29T11:42:39.982Z,8.13
2022-11-29T11:45:28.055Z,7.60
2022-11-29T11:48:08.621Z,7.75
2022-11-29T11:50:44.084Z,8.60
2022-11-29T11:53:36.481Z,6.78
2022-11-29T11:58:43.245Z,7.00
2022-11-29T12:01:15.442Z,7.85
2022-11-29T12:04:18.592Z,8.40
2022-11-29T12:07:06.026Z,8.63
2022-11-29T12:09:34.528Z,9.57
2022-11-29T12:12:38.402Z,8.40
2022-11-29T12:15:50.360Z,8.32
2022-11-29T12:18:34.274Z,8.35
2022-11-29T12:21:14.423Z,7.90
2022-11-29T12:23:52.654Z,8.18
2022-11-29T12:26:57.045Z,8.40
2022-11-29T12:29:22.579Z,9.05
2022-11-29T12:31:58.248Z,8.35
2022-11-29T12:34:46.502Z,7.47
2022-11-29T12:37:34.956Z,8.10
2022-11-29T12:40:26.346Z,7.97
2022-11-29T12:42:53.502Z,7.70
2022-11-29T12:45:32.143Z,8.05
2022-11-29T12:48:23.484Z,8.55
2022-11-29T12:50:56.271Z,7.53
2022-11-29T12:53:49.970Z,7.82
2022-11-29T12:56:44.348Z,6.63
2022-11-29T12:59:26.775Z,6.57
2022-11-29T13:02:15.839Z,7.60
2022-11-29T13:05:01.695Z,7.30
2022-11-29T13:07:41.011Z,7.38
2022-11-29T13:10:20.097Z,7.25
2022-11-29T13:12:55.298Z,7.30
2022-11-29T13:15:32.219Z,7.88
2022-11-29T13:18:18.695Z,8.10
2022-11-29T13:20:53.350Z,7.10
2022-11-29T13:23:52.917Z,5.22
2022-11-29T13:26:25.215Z,5.63
2022-11-29T13:28:58.336Z,5.72
2022-11-29T13:31:28.979Z,4.47
2022-11-29T13:34:17.129Z,4.88
2022-11-29T13:36:56.045Z,4.57
2022-11-29T13:39:52.381Z,4.40
2022-11-29T13:43:01.682Z,4.38
2022-11-29T13:45:42.723Z,4.55
2022-11-29T13:48:49.040Z,4.05
2022-11-29T13:51:38.933Z,4.28
2022-11-29T13:54:25.600Z,3.15
2022-11-29T13:57:10.955Z,3.80
2022-11-29T13:59:45.872Z,4.05
2022-11-29T14:02:31.707Z,3.80
2022-11-29T14:05:01.536Z,4.22
2022-11-29T14:07:33.274Z,3.60
2022-11-29T14:10:26.418Z,4.40
2022-11-29T14:12:59.922Z,3.25
2022-11-29T14:15:32.355Z,3.25
2022-11-29T14:18:08.885Z,3.10
2022-11-29T14:20:56.085Z,4.10
2022-11-29T14:23:37.817Z,4.15
2022-11-29T14:26:05.063Z,3.63
2022-11-29T14:28:33.651Z,3.85
2022-11-29T14:31:03.777Z,4.38
2022-11-29T14:33:53.537Z,3.70
2022-11-29T14:36:38.375Z,3.95
2022-11-29T14:39:08.120Z,3.75
2022-11-29T14:47:48.255Z,4.22
2022-11-29T14:50:35.675Z,4.82
2022-11-29T14:53:04.346Z,4.30
2022-11-29T14:55:43.130Z,4.40
2022-11-29T14:58:20.724Z,4.70
2022-11-29T15:00:47.863Z,4.43
2022-11-29T15:03:21.455Z,4.85
2022-11-29T15:05:55.382Z,4.53
2022-11-29T15:08:51.838Z,4.75
2022-11-29T15:11:34.199Z,4.28
2022-11-29T15:14:04.321Z,4.50
2022-11-29T15:16:42.912Z,5.15
2022-11-29T15:19:24.875Z,5.72
2022-11-29T15:22:07.361Z,7.70
2022-11-29T15:24:56.608Z,7.00
2022-11-29T15:27:24.028Z,5.53
2022-11-29T15:29:52.326Z,6.20
2022-11-29T15:32:30.875Z,5.82
2022-11-29T15:34:58.348Z,6.50
2022-11-29T15:37:44.424Z,4.82
2022-11-29T15:40:20.287Z,5.05
2022-11-29T15:43:02.181Z,5.47
2022-11-29T15:45:39.797Z,6.10
2022-11-29T15:48:17.778Z,6.60
2022-11-29T15:50:58.728Z,6.72
2022-11-29T15:53:35.576Z,8.23
2022-11-29T15:56:05.189Z,14.90
2022-11-29T15:58:33.815Z,13.40
2022-11-29T16:01:01.948Z,13.48
2022-11-29T16:03:32.655Z,11.98
2022-11-29T16:06:19.962Z,12.95
2022-11-29T16:08:47.447Z,12.15
2022-11-29T16:11:18.066Z,11.20
2022-11-29T16:14:12.748Z,9.18
2022-11-29T16:16:50.006Z,11.38
2022-11-29T16:19:22.506Z,9.20
2022-11-29T16:21:59.453Z,12.07
2022-11-29T16:24:26.926Z,12.77
2022-11-29T16:26:54.423Z,10.63
2022-11-29T16:29:25.696Z,9.30
2022-11-29T16:31:55.799Z,8.52
2022-11-29T16:34:33.975Z,7.30
2022-11-29T16:37:06.603Z,6.50
2022-11-29T16:39:37.120Z,10.23
2022-11-29T16:42:07.359Z,12.77
2022-11-29T16:44:42.597Z,12.60
2022-11-29T16:47:20.098Z,9.95
2022-11-29T16:50:06.319Z,11.10
2022-11-29T16:52:36.202Z,10.43
2022-11-29T16:55:02.997Z,8.90
2022-11-29T16:57:31.015Z,8.65
2022-11-29T17:00:00.541Z,8.30
2022-11-29T17:02:30.066Z,8.45
2022-11-29T17:05:01.930Z,8.52
2022-11-29T17:07:35.272Z,8.40
2022-11-29T17:10:03.932Z,7.85
2022-11-29T17:12:30.663Z,8.50
2022-11-29T17:14:57.341Z,8.60
2022-11-29T17:17:24.203Z,7.38
2022-11-29T17:19:50.939Z,7.30
2022-11-29T17:22:17.617Z,7.53
2022-11-29T17:24:48.477Z,9.43
2022-11-29T17:27:17.700Z,8.68
2022-11-29T17:29:44.422Z,7.53
2022-11-29T17:32:11.225Z,10.48
2022-11-29T17:34:40.129Z,11.20
2022-11-29T17:37:09.003Z,10.02
2022-11-29T17:39:38.151Z,10.15
2022-11-29T17:42:06.858Z,10.85
2022-11-29T17:44:36.177Z,11.45
2022-11-29T17:47:02.882Z,12.07
2022-11-29T17:49:31.789Z,20.25
2022-11-29T17:54:53.447Z,11.95
2022-11-29T17:57:20.263Z,11.00
2022-11-29T17:59:47.147Z,9.93
2022-11-29T18:02:14.069Z,10.20
2022-11-29T18:04:42.704Z,10.35
2022-11-29T18:07:12.987Z,11.30
2022-11-29T18:09:39.633Z,9.80
2022-11-29T18:12:09.092Z,10.02
2022-11-29T18:14:38.215Z,10.50
2022-11-29T18:17:04.946Z,10.63
2022-11-29T18:19:31.727Z,10.23
2022-11-29T18:22:03.205Z,10.60
2022-11-29T18:24:29.972Z,7.63
2022-11-29T18:26:56.660Z,9.27
2022-11-29T18:29:23.399Z,10.70
2022-11-29T18:31:52.941Z,12.23
2022-11-29T18:34:19.667Z,11.57
2022-11-29T18:36:49.414Z,12.05
2022-11-29T18:39:19.058Z,13.20
2022-11-29T18:41:50.260Z,12.98
2022-11-29T18:44:29.269Z,12.10
2022-11-29T18:46:57.014Z,12.73
2022-11-29T18:49:23.813Z,11.40
2022-11-29T18:51:50.770Z,14.52
2022-11-29T18:54:22.467Z,13.98
2022-11-29T18:56:53.956Z,14.65
2022-11-29T18:59:22.083Z,14.13
2022-11-29T19:01:49.255Z,12.90
2022-11-29T19:04:18.547Z,18.65
2022-11-29T19:06:45.487Z,18.95
2022-11-29T19:09:16.300Z,14.65
2022-11-29T19:11:43.263Z,13.00
2022-11-29T19:14:14.140Z,14.40
2022-11-29T19:16:43.984Z,14.65
2022-11-29T19:19:11.542Z,15.52
2022-11-29T19:21:41.602Z,12.50
2022-11-29T19:24:15.671Z,16.42
2022-11-29T19:26:44.945Z,14.30
2022-11-29T19:29:15.367Z,14.60
2022-11-29T19:31:43.118Z,13.25
2022-11-29T19:34:10.215Z,13.35
2022-11-29T19:36:42.643Z,13.40
2022-11-29T19:39:15.650Z,13.35
2022-11-29T19:41:45.456Z,13.55
2022-11-29T19:44:12.931Z,14.13
2022-11-29T19:46:42.926Z,12.15
2022-11-29T19:49:13.009Z,13.05
2022-11-29T19:51:39.977Z,12.77
2022-11-29T19:54:09.381Z,11.38
2022-11-29T19:56:36.359Z,10.20
2022-11-29T19:59:03.200Z,10.35
2022-11-29T20:01:39.763Z,10.98
2022-11-29T20:04:08.105Z,12.32
2022-11-29T20:06:35.072Z,12.18
2022-11-29T20:09:04.738Z,11.88
2022-11-29T20:11:31.457Z,9.13
2022-11-29T20:14:00.665Z,12.18
2022-11-29T20:16:30.697Z,10.45
2022-11-29T20:18:58.347Z,10.82
2022-11-29T20:21:28.248Z,11.05
2022-11-29T20:24:06.191Z,11.55
2022-11-29T20:26:34.791Z,11.65
2022-11-29T20:29:04.637Z,8.20
2022-11-29T20:31:32.431Z,11.25
2022-11-29T20:34:02.416Z,11.20
2022-11-29T20:36:47.244Z,10.98
2022-11-29T20:39:32.124Z,12.02
2022-11-29T20:42:37.670Z,11.25
2022-11-29T20:45:12.060Z,12.35
2022-11-29T20:47:52.870Z,11.50
2022-11-29T20:50:25.239Z,11.93
2022-11-29T20:53:07.718Z,11.48
2022-11-29T20:55:42.552Z,8.13
2022-11-29T20:58:13.164Z,11.00
2022-11-29T21:00:42.163Z,10.65
2022-11-29T21:03:15.285Z,9.85
2022-11-29T21:05:45.044Z,10.68
2022-11-29T21:08:15.681Z,10.95
2022-11-29T21:10:42.476Z,11.57
2022-11-29T21:13:12.455Z,11.73
2022-11-29T21:15:39.657Z,11.85
2022-11-29T21:18:06.880Z,11.45
2022-11-29T21:20:33.936Z,7.70
2022-11-29T21:23:07.220Z,10.50
2022-11-29T21:25:59.581Z,11.27
2022-11-29T21:30:57.101Z,10.52
2022-11-29T21:33:24.199Z,11.20
2022-11-29T21:35:57.932Z,11.02
2022-11-29T21:38:28.621Z,10.88
2022-11-29T21:40:55.311Z,11.70
2022-11-29T21:43:28.714Z,10.95
2022-11-29T21:46:09.038Z,10.93
2022-11-29T21:48:35.939Z,9.52
2022-11-29T21:51:04.042Z,7.90
2022-11-29T21:53:35.520Z,12.05
2022-11-29T21:56:07.433Z,10.77
2022-11-29T21:58:35.534Z,10.95
2022-11-29T22:01:16.426Z,10.95
2022-11-29T22:03:43.635Z,9.10
2022-11-29T22:06:20.488Z,9.23
2022-11-29T22:08:48.590Z,10.93
2022-11-29T22:11:30.460Z,7.75
2022-11-29T22:14:14.026Z,8.77
2022-11-29T22:16:55.164Z,11.55
2022-11-29T22:19:32.069Z,11.05
2022-11-29T22:22:01.435Z,10.82
2022-11-29T22:24:30.563Z,10.95
2022-11-29T22:26:57.484Z,9.73
2022-11-29T22:29:25.005Z,9.63
2022-11-29T22:31:55.024Z,10.85
2022-11-29T22:34:22.843Z,11.35
2022-11-29T22:36:52.132Z,11.88
2022-11-29T22:39:18.943Z,12.35
2022-11-29T22:41:52.272Z,10.00
2022-11-29T22:44:21.115Z,11.70
2022-11-29T22:46:47.922Z,12.32
2022-11-29T22:49:14.922Z,12.55
2022-11-29T22:51:41.907Z,12.40
2022-11-29T22:54:11.450Z,13.60
2022-11-29T22:56:40.242Z,14.20
2022-11-29T22:59:10.265Z,11.95
2022-11-29T23:01:39.671Z,12.15
2022-11-29T23:04:10.359Z,11.07
2022-11-29T23:06:42.499Z,11.82
2022-11-29T23:11:46.320Z,12.00
2022-11-29T23:14:13.691Z,12.82
2022-11-29T23:16:43.196Z,12.73
2022-11-29T23:19:12.293Z,11.35
2022-11-29T23:21:40.370Z,11.52
2022-11-29T23:24:07.357Z,10.60
2022-11-29T23:26:41.355Z,13.20
2022-11-29T23:29:15.409Z,13.30
2022-11-29T23:31:42.258Z,13.02
2022-11-29T23:34:09.388Z,13.38
2022-11-29T23:36:38.527Z,12.00
2022-11-29T23:39:10.496Z,12.85
2022-11-29T23:41:39.611Z,9.50
2022-11-29T23:44:09.418Z,12.75
2022-11-29T23:46:38.577Z,12.43
2022-11-29T23:49:05.272Z,12.95
2022-11-29T23:51:31.992Z,10.73
2022-11-29T23:53:58.787Z,11.82
2022-11-29T23:56:35.209Z,10.15
2022-11-29T23:59:04.551Z,11.85
